createdAt,value
2022-10-28T00:00:01.627Z,16.60
2022-10-28T00:03:47.553Z,16.60
2022-10-28T00:07:29.642Z,16.70
2022-10-28T00:11:20.546Z,16.70
2022-10-28T00:15:03.245Z,16.60
2022-10-28T00:18:45.562Z,16.60
2022-10-28T00:22:27.892Z,16.60
2022-10-28T00:26:12.889Z,16.60
2022-10-28T00:29:54.747Z,16.60
2022-10-28T00:33:36.729Z,16.60
2022-10-28T00:37:18.562Z,16.70
2022-10-28T00:41:00.484Z,16.70
2022-10-28T00:44:54.486Z,16.70
2022-10-28T00:48:41.414Z,16.70
2022-10-28T00:52:27.319Z,16.70
2022-10-28T00:56:10.218Z,16.70
2022-10-28T00:59:54.140Z,16.70
2022-10-28T01:03:37.087Z,16.70
2022-10-28T01:07:19.665Z,16.60
2022-10-28T01:11:20.631Z,16.60
2022-10-28T01:15:33.522Z,16.60
2022-10-28T01:19:43.223Z,16.50
2022-10-28T01:23:55.015Z,16.50
2022-10-28T01:27:48.891Z,16.50
2022-10-28T01:31:41.967Z,16.40
2022-10-28T01:35:38.485Z,16.40
2022-10-28T01:39:29.765Z,16.40
2022-10-28T01:43:41.315Z,16.30
2022-10-28T01:47:27.420Z,16.30
2022-10-28T01:51:29.436Z,16.30
2022-10-28T01:55:17.154Z,16.30
2022-10-28T01:59:01.979Z,16.20
2022-10-28T02:02:47.585Z,16.10
2022-10-28T02:06:31.783Z,16.00
2022-10-28T02:10:22.327Z,16.00
2022-10-28T02:14:25.535Z,16.00
2022-10-28T02:18:30.644Z,15.90
2022-10-28T02:22:20.824Z,15.90
2022-10-28T02:26:41.269Z,15.90
2022-10-28T02:30:32.918Z,15.90
2022-10-28T02:34:40.377Z,15.90
2022-10-28T02:38:46.115Z,15.90
2022-10-28T02:42:32.929Z,15.90
2022-10-28T02:46:17.030Z,15.90
2022-10-28T02:50:04.024Z,15.90
2022-10-28T02:54:08.874Z,15.90
2022-10-28T02:57:51.225Z,15.80
2022-10-28T03:01:34.842Z,15.90
2022-10-28T03:05:17.081Z,15.80
2022-10-28T03:08:58.913Z,15.80
2022-10-28T03:12:40.747Z,15.80
2022-10-28T03:16:22.700Z,15.90
2022-10-28T03:20:04.899Z,16.00
2022-10-28T03:23:49.402Z,16.00
2022-10-28T03:27:31.271Z,16.00
2022-10-28T03:31:13.116Z,16.10
2022-10-28T03:34:55.083Z,16.20
2022-10-28T03:38:37.032Z,16.40
2022-10-28T03:42:18.951Z,16.50
2022-10-28T03:46:00.781Z,16.60
2022-10-28T03:49:42.724Z,16.80
2022-10-28T03:53:27.647Z,17.00
2022-10-28T03:57:12.311Z,17.00
2022-10-28T04:00:55.326Z,17.00
2022-10-28T04:04:37.473Z,17.00
2022-10-28T04:08:20.307Z,17.10
2022-10-28T04:12:02.223Z,17.10
2022-10-28T04:15:44.327Z,17.10
2022-10-28T04:19:26.287Z,17.00
2022-10-28T04:23:11.058Z,16.80
2022-10-28T04:26:52.886Z,16.70
2022-10-28T04:30:34.754Z,16.70
2022-10-28T04:34:17.119Z,16.70
2022-10-28T04:37:58.944Z,16.80
2022-10-28T04:41:41.130Z,16.90
2022-10-28T04:45:22.971Z,16.90
2022-10-28T04:49:04.903Z,17.00
2022-10-28T04:52:46.792Z,17.00
2022-10-28T04:56:31.060Z,17.00
2022-10-28T05:00:13.448Z,17.10
2022-10-28T05:03:55.252Z,17.10
2022-10-28T05:07:38.046Z,17.10
2022-10-28T05:11:19.873Z,17.00
2022-10-28T05:15:01.684Z,16.90
2022-10-28T05:22:25.207Z,16.90
2022-10-28T05:26:07.098Z,16.80
2022-10-28T05:29:48.940Z,16.80
2022-10-28T05:33:30.872Z,16.80
2022-10-28T05:37:12.730Z,16.70
2022-10-28T05:40:54.770Z,16.70
2022-10-28T05:44:36.575Z,16.80
2022-10-28T05:48:18.392Z,16.70
2022-10-28T05:52:00.300Z,16.60
2022-10-28T05:55:46.779Z,16.70
2022-10-28T05:59:29.850Z,16.60
2022-10-28T06:03:12.531Z,16.60
2022-10-28T06:06:57.586Z,16.60
2022-10-28T06:10:40.480Z,16.70
2022-10-28T06:14:20.811Z,16.70
2022-10-28T06:18:03.138Z,16.70
2022-10-28T06:21:45.054Z,16.80
2022-10-28T06:25:27.045Z,16.80
2022-10-28T06:29:10.075Z,16.90
2022-10-28T06:32:52.003Z,16.90
2022-10-28T06:36:33.949Z,16.90
2022-10-28T06:40:15.895Z,17.00
2022-10-28T06:43:57.909Z,16.90
2022-10-28T06:47:41.696Z,16.90
2022-10-28T06:51:24.358Z,17.00
2022-10-28T06:55:06.677Z,16.90
2022-10-28T06:58:53.413Z,16.90
2022-10-28T07:02:35.231Z,16.90
2022-10-28T07:06:17.638Z,16.90
2022-10-28T07:10:05.794Z,16.80
2022-10-28T07:13:48.988Z,16.80
2022-10-28T07:17:31.023Z,16.80
2022-10-28T07:21:14.152Z,16.70
2022-10-28T07:24:56.197Z,16.60
2022-10-28T07:28:38.228Z,16.50
2022-10-28T07:32:20.161Z,16.50
2022-10-28T07:36:06.081Z,16.50
2022-10-28T07:39:47.949Z,16.50
2022-10-28T07:43:29.852Z,16.50
2022-10-28T07:47:11.858Z,16.50
2022-10-28T07:50:54.680Z,16.50
2022-10-28T07:54:36.499Z,16.60
2022-10-28T07:58:18.555Z,16.60
2022-10-28T08:02:00.544Z,16.60
2022-10-28T08:05:42.448Z,16.60
2022-10-28T08:09:24.530Z,16.60
2022-10-28T08:13:07.246Z,16.60
2022-10-28T08:16:49.088Z,16.70
2022-10-28T08:20:31.076Z,16.70
2022-10-28T08:24:13.083Z,16.70
2022-10-28T08:27:55.113Z,16.70
2022-10-28T08:31:36.949Z,16.80
2022-10-28T08:35:18.847Z,16.80
2022-10-28T08:39:01.864Z,16.90
2022-10-28T08:42:49.801Z,16.80
2022-10-28T08:46:37.937Z,16.90
2022-10-28T08:50:23.138Z,16.90
2022-10-28T08:54:26.702Z,16.80
2022-10-28T08:58:28.571Z,16.80
2022-10-28T09:02:23.651Z,16.90
2022-10-28T09:06:08.169Z,17.00
2022-10-28T09:09:51.541Z,17.10
2022-10-28T09:13:42.077Z,17.10
2022-10-28T09:17:54.281Z,17.10
2022-10-28T09:21:42.581Z,17.20
2022-10-28T09:25:51.376Z,17.30
2022-10-28T09:29:58.194Z,17.30
2022-10-28T09:33:51.406Z,17.50
2022-10-28T09:37:38.170Z,17.70
2022-10-28T09:41:23.966Z,18.20
2022-10-28T09:45:18.000Z,19.00
2022-10-28T09:49:05.315Z,19.70
2022-10-28T09:53:10.520Z,20.40
2022-10-28T10:00:48.855Z,21.60
2022-10-28T10:04:31.539Z,22.20
2022-10-28T10:08:16.647Z,22.80
2022-10-28T10:12:08.071Z,23.30
2022-10-28T10:15:55.532Z,23.60
2022-10-28T10:20:13.612Z,24.10
2022-10-28T10:23:55.515Z,24.30
2022-10-28T10:27:37.975Z,24.70
2022-10-28T10:31:22.562Z,25.10
2022-10-28T10:35:06.967Z,25.50
2022-10-28T10:38:54.838Z,25.70
2022-10-28T10:42:42.705Z,25.80
2022-10-28T10:46:33.748Z,26.10
2022-10-28T10:50:28.630Z,26.30
2022-10-28T10:54:15.086Z,26.60
2022-10-28T10:57:57.902Z,27.00
2022-10-28T11:01:40.851Z,27.50
2022-10-28T11:05:27.202Z,27.90
2022-10-28T11:09:26.139Z,28.00
2022-10-28T11:13:33.664Z,28.30
2022-10-28T11:17:25.204Z,28.70
2022-10-28T11:25:34.592Z,27.80
2022-10-28T11:29:17.454Z,27.40
2022-10-28T11:33:30.499Z,27.30
2022-10-28T11:37:27.617Z,27.50
2022-10-28T11:41:37.728Z,27.40
2022-10-28T11:45:25.145Z,27.60
2022-10-28T11:49:24.133Z,27.60
2022-10-28T11:53:26.830Z,27.80
2022-10-28T11:57:15.033Z,28.20
2022-10-28T12:01:21.191Z,28.20
2022-10-28T12:05:07.611Z,28.30
2022-10-28T12:09:33.892Z,28.50
2022-10-28T12:13:37.069Z,29.10
2022-10-28T12:18:10.104Z,29.40
2022-10-28T12:22:12.106Z,29.50
2022-10-28T12:25:57.644Z,29.60
2022-10-28T12:29:44.408Z,29.60
2022-10-28T12:33:34.852Z,29.30
2022-10-28T12:37:27.940Z,29.20
2022-10-28T12:41:20.311Z,29.40
2022-10-28T12:45:06.903Z,29.60
2022-10-28T12:48:54.230Z,29.60
2022-10-28T12:53:16.093Z,29.60
2022-10-28T12:57:14.736Z,29.50
2022-10-28T13:01:19.678Z,29.50
2022-10-28T13:05:04.879Z,29.30
2022-10-28T13:09:11.190Z,29.20
2022-10-28T13:13:28.168Z,28.60
2022-10-28T13:17:33.030Z,27.70
2022-10-28T13:21:23.286Z,27.30
2022-10-28T13:25:20.051Z,26.70
2022-10-28T13:29:07.526Z,26.60
2022-10-28T13:33:22.406Z,26.20
2022-10-28T13:37:07.539Z,25.70
2022-10-28T13:41:14.452Z,25.00
2022-10-28T13:45:02.555Z,25.10
2022-10-28T13:48:49.048Z,24.70
2022-10-28T13:52:49.316Z,23.80
2022-10-28T13:56:59.804Z,23.80
2022-10-28T14:00:46.744Z,24.30
2022-10-28T14:04:42.361Z,23.90
2022-10-28T14:08:24.744Z,23.20
2022-10-28T14:12:24.920Z,22.60
2022-10-28T14:16:20.546Z,22.20
2022-10-28T14:20:07.404Z,21.70
2022-10-28T14:23:50.744Z,21.50
2022-10-28T14:27:43.613Z,21.10
2022-10-28T14:31:55.087Z,20.90
2022-10-28T14:35:44.244Z,20.70
2022-10-28T14:39:35.387Z,20.50
2022-10-28T14:43:38.035Z,20.40
2022-10-28T14:47:39.153Z,20.30
2022-10-28T14:51:44.287Z,20.20
2022-10-28T14:55:31.520Z,20.10
2022-10-28T14:59:25.119Z,20.10
2022-10-28T15:03:11.431Z,20.10
2022-10-28T15:06:53.822Z,20.00
2022-10-28T15:10:37.463Z,19.80
2022-10-28T15:14:28.321Z,19.50
2022-10-28T15:18:23.025Z,19.30
2022-10-28T15:22:21.298Z,19.30
2022-10-28T15:26:21.846Z,19.20
2022-10-28T15:30:13.364Z,19.00
2022-10-28T15:33:55.612Z,19.00
2022-10-28T15:37:38.432Z,18.90
2022-10-28T15:41:23.856Z,18.70
2022-10-28T15:45:07.043Z,18.60
2022-10-28T15:48:59.693Z,18.60
2022-10-28T15:52:42.343Z,18.50
2022-10-28T15:56:25.988Z,18.40
2022-10-28T16:00:23.199Z,18.30
2022-10-28T16:04:48.060Z,18.20
2022-10-28T16:08:32.423Z,18.10
2022-10-28T16:12:17.463Z,18.10
2022-10-28T16:16:04.494Z,17.90
2022-10-28T16:19:52.697Z,17.80
2022-10-28T16:23:39.428Z,17.60
2022-10-28T16:27:27.220Z,17.50
2022-10-28T16:31:17.464Z,17.50
2022-10-28T16:35:01.412Z,17.30
2022-10-28T16:38:43.595Z,17.20
2022-10-28T16:42:26.558Z,17.20
2022-10-28T16:46:15.156Z,17.00
2022-10-28T16:49:57.692Z,17.00
2022-10-28T16:53:43.397Z,16.90
2022-10-28T16:57:27.805Z,16.80
2022-10-28T17:01:18.613Z,16.70
2022-10-28T17:05:01.082Z,16.60
2022-10-28T17:09:01.927Z,16.50
2022-10-28T17:12:44.564Z,16.50
2022-10-28T17:16:26.606Z,16.40
2022-10-28T17:20:09.231Z,16.30
2022-10-28T17:23:51.558Z,16.20
2022-10-28T17:27:33.611Z,16.20
2022-10-28T17:31:19.145Z,16.10
2022-10-28T17:35:04.359Z,16.00
2022-10-28T17:38:48.829Z,16.00
2022-10-28T17:42:30.711Z,15.90
2022-10-28T17:46:15.928Z,15.80
2022-10-28T17:49:58.775Z,15.80
2022-10-28T17:53:40.671Z,15.60
2022-10-28T17:57:22.925Z,15.60
2022-10-28T18:01:09.110Z,15.50
2022-10-28T18:04:51.844Z,15.50
2022-10-28T18:08:36.021Z,15.50
2022-10-28T18:12:18.018Z,15.40
2022-10-28T18:16:06.883Z,15.40
2022-10-28T18:19:48.900Z,15.30
2022-10-28T18:23:30.727Z,15.20
2022-10-28T18:27:12.658Z,15.10
2022-10-28T18:30:54.502Z,15.10
2022-10-28T18:34:36.607Z,15.00
2022-10-28T18:38:18.475Z,15.00
2022-10-28T18:42:00.395Z,15.00
2022-10-28T18:45:42.252Z,15.00
2022-10-28T18:49:26.585Z,14.90
2022-10-28T18:53:09.842Z,14.80
2022-10-28T18:56:55.173Z,14.80
2022-10-28T19:00:40.234Z,14.80
2022-10-28T19:04:22.317Z,14.80
2022-10-28T19:08:05.989Z,14.80
2022-10-28T19:11:48.029Z,14.70
2022-10-28T19:15:29.835Z,14.60
2022-10-28T19:19:12.147Z,14.60
2022-10-28T19:22:57.749Z,14.60
2022-10-28T19:26:40.258Z,14.60
2022-10-28T19:30:22.362Z,14.50
2022-10-28T19:34:04.320Z,14.50
2022-10-28T19:37:50.415Z,14.50
2022-10-28T19:41:33.704Z,14.50
2022-10-28T19:45:15.632Z,14.50
2022-10-28T19:49:02.201Z,14.50
2022-10-28T19:56:36.502Z,14.50
2022-10-28T20:00:18.757Z,14.50
2022-10-28T20:04:00.887Z,14.50
2022-10-28T20:07:42.791Z,14.50
2022-10-28T20:15:30.826Z,14.50
2022-10-28T20:19:13.076Z,14.50
2022-10-28T20:22:55.550Z,14.50
2022-10-28T20:26:38.938Z,14.50
2022-10-28T20:30:23.072Z,14.50
2022-10-28T20:34:06.108Z,14.50
2022-10-28T20:38:08.807Z,14.50
2022-10-28T20:41:51.379Z,14.50
2022-10-28T20:45:40.001Z,14.40
2022-10-28T20:49:21.941Z,14.40
2022-10-28T20:53:04.116Z,14.40
2022-10-28T20:56:46.008Z,14.40
2022-10-28T21:00:28.003Z,14.40
2022-10-28T21:04:11.461Z,14.40
2022-10-28T21:07:55.094Z,14.40
2022-10-28T21:11:37.784Z,14.40
2022-10-28T21:15:22.013Z,14.40
2022-10-28T21:19:03.896Z,14.50
2022-10-28T21:22:45.938Z,14.40
2022-10-28T21:26:27.977Z,14.40
2022-10-28T21:30:10.641Z,14.40
2022-10-28T21:33:53.379Z,14.50
2022-10-28T21:37:37.074Z,14.50
2022-10-28T21:41:26.921Z,14.40
2022-10-28T21:45:10.510Z,14.40
2022-10-28T21:48:54.423Z,14.40
2022-10-28T21:52:39.077Z,14.50
2022-10-28T21:56:21.872Z,14.50
2022-10-28T22:00:06.054Z,14.50
2022-10-28T22:03:48.196Z,14.50
2022-10-28T22:07:31.101Z,14.50
2022-10-28T22:11:22.994Z,14.50
2022-10-28T22:15:05.436Z,14.50
2022-10-28T22:18:47.885Z,14.60
2022-10-28T22:22:31.803Z,14.60
2022-10-28T22:26:18.618Z,14.60
2022-10-28T22:30:00.487Z,14.70
2022-10-28T22:33:42.480Z,14.70
2022-10-28T22:37:24.529Z,14.70
2022-10-28T22:41:07.657Z,14.80
2022-10-28T22:44:49.651Z,14.80
2022-10-28T22:48:32.507Z,14.80
2022-10-28T22:52:14.485Z,14.80
2022-10-28T22:55:57.457Z,14.80
2022-10-28T22:59:42.974Z,14.80
2022-10-28T23:03:24.830Z,14.80
2022-10-28T23:07:06.704Z,14.80
2022-10-28T23:10:48.607Z,14.80
2022-10-28T23:14:30.545Z,14.80
2022-10-28T23:18:12.448Z,14.70
2022-10-28T23:21:56.784Z,14.70
2022-10-28T23:25:42.370Z,14.70
2022-10-28T23:29:24.300Z,14.70
2022-10-28T23:33:06.285Z,14.60
2022-10-28T23:36:54.163Z,14.70
2022-10-28T23:40:39.946Z,14.60
2022-10-28T23:44:21.916Z,14.60
2022-10-28T23:48:04.061Z,14.60
2022-10-28T23:51:46.201Z,14.60
2022-10-28T23:55:28.134Z,14.60
2022-10-28T23:59:09.970Z,14.60
